Time;durP1;ratioP1;P1;durP2;ratioP2;P2;SDS_P1;SDS_P2;PMS_P1;PMS_P2;Temp;Humidity;BMP_temperature;BMP_pressure;BME280_temperature;BME280_humidity;BME280_pressure;Samples;Min_cycle;Max_cycle;Signal;HPM_P1;HPM_P2
2020/12/28 00:00:59;;;;;;;0.40;0.30;;;;;;;3.81;61.79;98159.22;5012901;28;21013;-67
2020/12/28 00:03:25;;;;;;;0.40;0.30;;;;;;;3.84;62.91;98142.50;5013222;28;20476;-66
2020/12/28 00:05:51;;;;;;;1.10;0.80;;;;;;;3.82;62.99;98143.94;5012950;28;20519;-66
2020/12/28 00:08:17;;;;;;;7.43;1.17;;;;;;;3.85;62.36;98152.13;5012973;28;20487;-66
2020/12/28 00:10:44;;;;;;;0.50;0.40;;;;;;;3.82;63.96;98138.56;5012846;28;21050;-66
2020/12/28 00:13:10;;;;;;;0.50;0.50;;;;;;;3.86;64.54;98129.59;5012897;28;20965;-66
2020/12/28 00:15:36;;;;;;;0.40;0.30;;;;;;;3.87;63.99;98130.38;5013198;28;20479;-66
2020/12/28 00:18:03;;;;;;;0.40;0.20;;;;;;;3.87;64.16;98119.66;5013197;28;20472;-67
2020/12/28 00:20:31;;;;;;;0.40;0.30;;;;;;;3.83;63.01;98124.06;5013323;28;20927;-66
2020/12/28 00:22:58;;;;;;;1.10;0.53;;;;;;;3.72;63.20;98102.22;5016659;28;20448;-66
2020/12/28 00:25:25;;;;;;;0.40;0.30;;;;;;;3.71;63.04;98106.75;5016845;28;20478;-66
2020/12/28 00:27:52;;;;;;;0.50;0.40;;;;;;;3.74;63.01;98103.47;5016768;28;20523;-66
2020/12/28 00:30:18;;;;;;;0.40;0.30;;;;;;;3.66;63.85;98100.78;5016341;28;20463;-66
2020/12/28 00:32:45;;;;;;;0.50;0.40;;;;;;;3.71;63.59;98096.06;5016438;28;20443;-66
2020/12/28 00:35:13;;;;;;;0.40;0.30;;;;;;;3.73;63.06;98099.22;5016641;28;20448;-66
2020/12/28 00:37:39;;;;;;;0.57;0.57;;;;;;;3.59;63.93;98090.56;5016754;28;20820;-66
2020/12/28 00:40:07;;;;;;;0.40;0.30;;;;;;;3.59;64.05;98092.47;5016626;28;20452;-67
2020/12/28 00:42:33;;;;;;;1.00;1.00;;;;;;;3.57;64.51;98100.78;5016229;28;20968;-66
2020/12/28 00:45:00;;;;;;;0.60;0.40;;;;;;;3.60;64.72;98099.38;5016515;28;20860;-67
2020/12/28 00:47:26;;;;;;;0.40;0.20;;;;;;;3.58;64.50;98091.66;5016303;28;20524;-67
2020/12/28 00:49:52;;;;;;;0.60;0.53;;;;;;;3.56;65.12;98098.44;5016329;28;20459;-66
2020/12/28 00:52:19;;;;;;;0.97;0.97;;;;;;;3.54;65.81;98101.41;5016284;28;20499;-67
2020/12/28 00:54:46;;;;;;;0.40;0.30;;;;;;;3.45;66.31;98089.94;5016063;28;20455;-65
2020/12/28 00:57:12;;;;;;;0.40;0.30;;;;;;;3.50;67.00;98073.75;5016449;28;20941;-67
2020/12/28 00:59:38;;;;;;;2.73;0.97;;;;;;;3.51;66.46;98069.97;5016351;28;20499;-66
2020/12/28 01:02:04;;;;;;;0.40;0.27;;;;;;;3.44;67.53;98075.78;5016170;28;20476;-67
2020/12/28 01:04:30;;;;;;;0.40;0.30;;;;;;;3.44;67.43;98077.66;5016230;28;20823;-67
2020/12/28 01:06:56;;;;;;;0.40;0.30;;;;;;;3.44;67.47;98075.00;5015990;28;20516;-67
2020/12/28 01:09:23;;;;;;;0.63;0.43;;;;;;;3.46;67.72;98067.44;5015811;28;20452;-66
2020/12/28 01:11:49;;;;;;;0.40;0.20;;;;;;;3.43;67.60;98065.38;5016070;28;20463;-66
2020/12/28 01:14:16;;;;;;;0.40;0.30;;;;;;;3.40;68.38;98064.13;5015281;28;20495;-66
2020/12/28 01:16:43;;;;;;;0.40;0.30;;;;;;;3.47;68.87;98064.44;5015916;28;20468;-66
2020/12/28 01:19:10;;;;;;;0.40;0.40;;;;;;;3.41;69.14;98048.84;5015793;28;20455;-66
2020/12/28 01:21:36;;;;;;;0.40;0.30;;;;;;;3.39;69.36;98030.44;5015381;28;20977;-66
2020/12/28 01:24:02;;;;;;;0.60;0.50;;;;;;;3.44;69.29;98022.25;5015765;28;20479;-66
2020/12/28 01:26:29;;;;;;;0.40;0.20;;;;;;;3.45;68.90;98025.72;5015723;28;20490;-66
2020/12/28 01:28:55;;;;;;;1.03;0.93;;;;;;;3.36;69.38;98036.44;5015643;28;20444;-66
2020/12/28 01:31:21;;;;;;;0.40;0.30;;;;;;;3.40;69.86;98041.94;5015551;28;20526;-66
2020/12/28 01:33:47;;;;;;;0.60;0.40;;;;;;;3.33;70.15;98047.78;5014545;28;20444;-66
2020/12/28 01:36:14;;;;;;;1.73;0.60;;;;;;;3.40;70.76;98042.72;5015538;28;20490;-66
2020/12/28 01:38:40;;;;;;;0.40;0.20;;;;;;;3.44;70.63;98042.88;5015525;28;20478;-66
2020/12/28 01:41:06;;;;;;;0.50;0.50;;;;;;;3.43;70.80;98041.31;5015293;28;20985;-67
2020/12/28 01:43:33;;;;;;;0.40;0.30;;;;;;;3.42;70.91;98048.56;5015110;28;20883;-66
2020/12/28 01:46:00;;;;;;;0.40;0.30;;;;;;;3.36;71.45;98065.06;5015182;28;21010;-68
2020/12/28 01:48:28;;;;;;;1.17;0.50;;;;;;;3.38;71.53;98060.22;5015314;28;20484;-66
2020/12/28 01:50:55;;;;;;;0.70;0.60;;;;;;;3.45;71.45;98073.88;5015162;28;20464;-66
2020/12/28 01:53:21;;;;;;;0.50;0.40;;;;;;;3.51;71.16;98080.66;5014943;28;20471;-66
2020/12/28 01:55:52;;;;;;;0.40;0.30;;;;;;;3.41;72.93;98064.91;5015207;28;20459;-66
2020/12/28 01:58:19;;;;;;;0.40;0.30;;;;;;;3.48;72.36;98081.28;5015462;28;20432;-72
2020/12/28 02:00:46;;;;;;;2.70;0.53;;;;;;;3.54;72.42;98069.31;5015013;28;20471;-66
2020/12/28 02:03:13;;;;;;;0.40;0.30;;;;;;;3.45;73.20;98061.31;5043864;23;20486;-75
2020/12/28 02:05:40;;;;;;;0.40;0.30;;;;;;;3.50;72.58;98060.34;5035639;28;20470;-75
2020/12/28 02:08:06;;;;;;;0.80;0.80;;;;;;;3.52;73.00;98074.19;5035479;28;20487;-75
2020/12/28 02:10:32;;;;;;;0.40;0.33;;;;;;;3.50;72.79;98093.25;5035465;28;20820;-75
2020/12/28 02:12:59;;;;;;;0.40;0.30;;;;;;;3.54;72.66;98093.38;5033002;28;20459;-75
2020/12/28 02:15:25;;;;;;;0.40;0.30;;;;;;;3.55;72.82;98094.97;4998211;28;20986;-75
2020/12/28 02:17:52;;;;;;;0.57;0.57;;;;;;;3.55;73.15;98092.31;4999525;28;20449;-75
2020/12/28 02:20:19;;;;;;;0.40;0.30;;;;;;;3.56;73.39;98095.75;4998132;28;20449;-75
2020/12/28 02:22:46;;;;;;;0.50;0.40;;;;;;;3.58;73.42;98086.31;4995500;28;20500;-74
2020/12/28 02:25:12;;;;;;;0.50;0.40;;;;;;;3.52;73.91;98076.88;5005120;28;20460;-73
2020/12/28 02:27:38;;;;;;;0.40;0.30;;;;;;;3.53;73.55;98079.22;5015117;28;20494;-75
2020/12/28 02:30:05;;;;;;;0.40;0.20;;;;;;;3.49;73.37;98064.13;5009170;28;20457;-75
2020/12/28 02:32:31;;;;;;;1.80;0.87;;;;;;;3.46;73.40;98056.75;5013880;28;20444;-75
2020/12/28 02:34:57;;;;;;;0.40;0.30;;;;;;;3.43;73.15;98058.16;5015549;28;20514;-75
2020/12/28 02:37:24;;;;;;;0.40;0.30;;;;;;;3.41;73.65;98048.84;5015637;28;20440;-75
2020/12/28 02:39:51;;;;;;;0.40;0.30;;;;;;;3.34;73.50;98043.22;5015247;28;20452;-75
2020/12/28 02:42:17;;;;;;;0.40;0.30;;;;;;;3.36;74.06;98038.31;5015755;28;20444;-75
2020/12/28 02:44:43;;;;;;;0.40;0.30;;;;;;;3.29;74.05;98036.91;5015265;28;20475;-75
2020/12/28 02:47:10;;;;;;;0.50;0.50;;;;;;;3.31;74.20;98041.16;4996642;28;20481;-76
2020/12/28 02:49:36;;;;;;;0.60;0.60;;;;;;;3.26;74.47;98037.53;5010044;28;20527;-74
2020/12/28 02:52:02;;;;;;;2.60;1.43;;;;;;;3.26;74.32;98026.84;5015401;28;20456;-74
2020/12/28 02:54:28;;;;;;;0.40;0.27;;;;;;;3.25;74.31;98025.28;5015434;28;20456;-75
2020/12/28 02:56:55;;;;;;;0.40;0.30;;;;;;;3.23;75.09;98026.69;5007898;28;20564;-75
2020/12/28 02:59:22;;;;;;;0.40;0.33;;;;;;;3.23;76.17;98030.16;4994548;28;20456;-75
2020/12/28 03:01:48;;;;;;;0.40;0.30;;;;;;;3.29;76.15;98014.72;4994676;28;20449;-75
2020/12/28 03:04:15;;;;;;;1.47;0.57;;;;;;;3.31;76.40;98019.75;4994734;28;20480;-75
2020/12/28 03:06:41;;;;;;;0.43;0.30;;;;;;;3.34;76.40;98011.09;4994572;28;20497;-75
2020/12/28 03:09:07;;;;;;;0.40;0.30;;;;;;;3.35;76.89;98013.47;4994794;28;20449;-75
2020/12/28 03:11:35;;;;;;;0.60;0.47;;;;;;;3.39;76.81;98016.28;4994755;28;20456;-75
2020/12/28 03:14:03;;;;;;;2.17;1.97;;;;;;;3.43;76.69;98019.91;5002806;28;20440;-76
2020/12/28 03:16:29;;;;;;;0.40;0.40;;;;;;;3.39;76.95;98027.00;5014831;28;20453;-75
2020/12/28 03:18:55;;;;;;;0.40;0.30;;;;;;;3.41;77.30;98019.41;4996839;28;20452;-75
2020/12/28 03:21:21;;;;;;;0.87;0.50;;;;;;;3.39;77.91;98018.97;4994670;28;20465;-75
2020/12/28 03:23:48;;;;;;;0.50;0.40;;;;;;;3.46;77.32;98014.72;4994325;28;20452;-74
2020/12/28 03:26:14;;;;;;;0.50;0.50;;;;;;;3.40;77.44;97975.03;4994413;28;20489;-74
2020/12/28 03:28:40;;;;;;;0.40;0.30;;;;;;;3.30;78.24;97954.78;4995219;28;20451;-75
2020/12/28 03:31:07;;;;;;;0.40;0.30;;;;;;;3.27;78.54;97953.50;4994409;28;20964;-75
2020/12/28 03:33:34;;;;;;;0.50;0.43;;;;;;;3.25;78.75;97955.72;4994516;28;20429;-74
2020/12/28 03:36:00;;;;;;;2.63;1.60;;;;;;;3.20;78.34;97952.44;4994641;28;20469;-75
2020/12/28 03:38:26;;;;;;;17.80;1.23;;;;;;;3.26;78.36;97957.28;4994433;28;20442;-74
2020/12/28 03:40:52;;;;;;;0.50;0.40;;;;;;;3.24;78.70;97956.84;4994661;28;20925;-74
2020/12/28 03:43:19;;;;;;;0.67;0.50;;;;;;;3.23;79.56;97965.16;4994810;28;20484;-74
2020/12/28 03:45:45;;;;;;;0.83;0.60;;;;;;;3.17;79.07;97939.69;4994087;28;20853;-74
2020/12/28 03:48:12;;;;;;;5.20;0.67;;;;;;;3.18;79.71;97944.72;5004968;28;20484;-75
2020/12/28 03:50:38;;;;;;;0.70;0.70;;;;;;;3.18;79.73;97939.38;5014036;28;20448;-74
2020/12/28 03:53:04;;;;;;;0.67;0.50;;;;;;;3.21;80.75;97938.75;5010161;28;20457;-75
2020/12/28 03:55:31;;;;;;;0.40;0.30;;;;;;;3.26;80.13;97927.09;4994716;28;20479;-74
2020/12/28 03:57:57;;;;;;;6.40;2.03;;;;;;;3.26;80.93;97935.88;4998803;28;20445;-74
2020/12/28 04:00:23;;;;;;;0.53;0.53;;;;;;;3.31;81.38;97923.44;5001935;28;20444;-74
2020/12/28 04:02:49;;;;;;;0.40;0.30;;;;;;;3.31;81.28;97918.09;5017516;28;20794;-75
2020/12/28 04:05:17;;;;;;;0.83;0.83;;;;;;;3.36;81.43;97921.38;5017590;28;20618;-75
2020/12/28 04:07:43;;;;;;;0.40;0.30;;;;;;;3.36;81.38;97907.22;5017723;28;20549;-75
2020/12/28 04:10:09;;;;;;;1.00;0.80;;;;;;;3.43;81.24;97912.88;5000266;28;20494;-75
2020/12/28 04:12:35;;;;;;;0.40;0.40;;;;;;;3.50;81.12;97913.19;4997798;28;20838;-75
2020/12/28 04:15:02;;;;;;;0.60;0.40;;;;;;;3.48;81.43;97904.69;4997638;28;20465;-75
2020/12/28 04:17:28;;;;;;;2.33;0.50;;;;;;;3.50;81.64;97911.28;4998155;28;20449;-74
2020/12/28 04:19:54;;;;;;;0.63;0.63;;;;;;;3.55;81.29;97913.00;4997404;28;20483;-75
2020/12/28 04:22:21;;;;;;;0.40;0.30;;;;;;;3.55;81.16;97910.34;4998229;28;20816;-74
2020/12/28 04:24:47;;;;;;;0.40;0.30;;;;;;;3.46;81.72;97901.56;4999121;28;20835;-74
2020/12/28 04:27:13;;;;;;;0.40;0.37;;;;;;;3.51;81.56;97904.81;5017588;28;20488;-74
2020/12/28 04:29:40;;;;;;;0.50;0.50;;;;;;;3.54;81.51;97903.38;5001201;28;20462;-75
2020/12/28 04:32:06;;;;;;;0.57;0.47;;;;;;;3.53;81.18;97901.81;4997545;28;20445;-74
2020/12/28 04:34:32;;;;;;;0.40;0.30;;;;;;;3.54;81.05;97914.09;4997593;28;20468;-75
2020/12/28 04:36:58;;;;;;;0.40;0.30;;;;;;;3.55;81.35;97910.34;5003706;28;20453;-74
2020/12/28 04:39:25;;;;;;;0.40;0.30;;;;;;;3.56;81.68;97900.41;4997828;28;20495;-74
2020/12/28 04:41:52;;;;;;;0.40;0.20;;;;;;;3.60;81.56;97904.00;4997930;28;20453;-75
2020/12/28 04:44:18;;;;;;;0.40;0.30;;;;;;;3.52;81.71;97905.59;5007926;28;20491;-74
2020/12/28 04:46:44;;;;;;;0.80;0.50;;;;;;;3.59;81.61;97907.81;5016871;28;20488;-74
2020/12/28 04:49:10;;;;;;;1.43;1.00;;;;;;;3.57;81.20;97907.31;5017113;28;20448;-75
2020/12/28 04:51:37;;;;;;;0.40;0.30;;;;;;;3.58;81.62;97909.66;5017111;28;20452;-74
2020/12/28 04:54:03;;;;;;;0.60;0.53;;;;;;;3.59;81.00;97900.56;5016893;28;20448;-75
2020/12/28 04:56:30;;;;;;;0.40;0.33;;;;;;;3.60;80.77;97902.13;5008300;28;20507;-74
2020/12/28 04:58:57;;;;;;;1.43;1.33;;;;;;;3.62;81.30;97899.91;4997166;28;20463;-74
2020/12/28 05:01:23;;;;;;;0.40;0.30;;;;;;;3.63;81.88;97904.16;4997103;28;20518;-74
2020/12/28 05:03:50;;;;;;;0.40;0.30;;;;;;;3.64;82.46;97903.06;4996746;28;20576;-74
2020/12/28 05:06:16;;;;;;;0.60;0.50;;;;;;;3.63;82.79;97893.47;4996919;28;20457;-74
2020/12/28 05:08:44;;;;;;;1.57;0.60;;;;;;;3.61;82.84;97901.00;5003253;28;20476;-75
2020/12/28 05:11:13;;;;;;;9.50;2.57;;;;;;;3.64;82.81;97905.72;5016367;28;20899;-74
2020/12/28 05:13:40;;;;;;;0.40;0.30;;;;;;;3.69;82.75;97910.91;5016644;28;20816;-74
2020/12/28 05:16:06;;;;;;;0.40;0.20;;;;;;;3.68;82.74;97909.34;5016149;28;20868;-74
2020/12/28 05:18:34;;;;;;;0.40;0.30;;;;;;;3.72;82.54;97906.81;5003693;28;20480;-75
2020/12/28 05:21:00;;;;;;;1.23;0.40;;;;;;;3.70;82.66;97901.75;4996804;28;20455;-74
2020/12/28 05:23:26;;;;;;;0.40;0.30;;;;;;;3.73;82.74;97909.16;5013749;28;20449;-74
2020/12/28 05:25:53;;;;;;;2.83;0.73;;;;;;;3.73;82.65;97906.47;5016064;28;20471;-74
2020/12/28 05:28:22;;;;;;;0.40;0.40;;;;;;;3.70;82.89;97903.66;5015874;28;20492;-74
2020/12/28 05:30:50;;;;;;;0.40;0.30;;;;;;;3.69;83.03;97900.19;5016133;28;20432;-74
2020/12/28 05:33:18;;;;;;;0.40;0.30;;;;;;;3.68;82.59;97892.50;5016140;28;20510;-74
2020/12/28 05:35:44;;;;;;;5.87;1.60;;;;;;;3.69;82.09;97884.13;5001806;28;20461;-74
2020/12/28 05:38:13;;;;;;;0.40;0.30;;;;;;;3.69;82.57;97878.00;4996494;28;20508;-75
2020/12/28 05:40:39;;;;;;;0.40;0.30;;;;;;;3.59;82.65;97878.38;4996805;28;20449;-74
2020/12/28 05:43:06;;;;;;;0.93;0.40;;;;;;;3.53;82.28;97875.06;4996646;28;20447;-74
2020/12/28 05:45:33;;;;;;;0.40;0.30;;;;;;;3.60;83.10;97872.69;4996378;28;20472;-75
2020/12/28 05:48:01;;;;;;;0.40;0.30;;;;;;;3.55;83.56;97878.22;4995906;28;20512;-74
2020/12/28 05:50:30;;;;;;;0.87;0.80;;;;;;;3.58;83.60;97877.56;4996618;28;20444;-74
2020/12/28 05:52:57;;;;;;;0.63;0.63;;;;;;;3.59;82.90;97865.00;4998362;28;20452;-74
2020/12/28 05:55:25;;;;;;;1.10;1.00;;;;;;;3.58;83.03;97869.53;5015830;28;20472;-74
2020/12/28 05:57:51;;;;;;;0.50;0.40;;;;;;;3.63;82.92;97861.34;5022803;22;20518;-67
2020/12/28 06:00:18;;;;;;;0.50;0.40;;;;;;;3.63;83.58;97856.00;5030557;28;20478;-68
2020/12/28 06:02:45;;;;;;;0.60;0.60;;;;;;;3.67;84.04;97864.13;5034397;28;20447;-67
2020/12/28 06:05:13;;;;;;;0.60;0.50;;;;;;;3.69;84.20;97869.97;5032307;28;20475;-67
2020/12/28 06:07:40;;;;;;;0.83;0.80;;;;;;;3.72;83.91;97875.47;5016025;28;20980;-68
2020/12/28 06:10:07;;;;;;;0.50;0.40;;;;;;;3.77;83.33;97871.81;5014627;28;20979;-68
2020/12/28 06:12:33;;;;;;;0.40;0.30;;;;;;;3.77;83.10;97887.88;5015726;28;20878;-68
2020/12/28 06:15:00;;;;;;;0.43;0.37;;;;;;;3.78;83.09;97892.13;5015052;28;20448;-69
2020/12/28 06:17:34;;;;;;;0.70;0.63;;;;;;;3.74;83.42;97891.97;5028023;28;20443;-69
2020/12/28 06:20:01;;;;;;;0.40;0.37;;;;;;;3.76;83.28;97892.47;5034374;28;20494;-67
2020/12/28 06:22:29;;;;;;;0.40;0.40;;;;;;;3.74;83.51;97881.28;5021006;28;20513;-69
2020/12/28 06:24:57;;;;;;;0.50;0.43;;;;;;;3.70;83.74;97883.00;5014954;28;20475;-67
2020/12/28 06:27:31;;;;;;;0.50;0.43;;;;;;;3.70;83.77;97876.88;5026851;28;20479;-67
2020/12/28 06:30:15;;;;;;;0.40;0.30;;;;;;;3.77;83.63;97877.19;5032370;28;20493;-67
2020/12/28 06:32:42;;;;;;;0.40;0.30;;;;;;;3.73;83.66;97871.69;5020109;28;20444;-68
2020/12/28 06:35:10;;;;;;;0.40;0.30;;;;;;;3.72;83.25;97863.97;5027215;28;20955;-67
2020/12/28 06:37:42;;;;;;;0.70;0.67;;;;;;;3.67;83.56;97862.25;5020993;28;20949;-67
2020/12/28 06:40:09;;;;;;;0.40;0.20;;;;;;;3.69;83.95;97868.06;5026249;28;20447;-67
2020/12/28 06:42:35;;;;;;;0.50;0.43;;;;;;;3.69;83.74;97862.72;5014434;28;20809;-68
2020/12/28 06:45:15;;;;;;;0.40;0.30;;;;;;;3.74;83.58;97859.06;5014177;28;20479;-68
2020/12/28 06:47:41;;;;;;;2.43;0.77;;;;;;;3.73;83.26;97858.28;5001465;28;20526;-68
2020/12/28 06:50:08;;;;;;;0.40;0.30;;;;;;;3.77;82.85;97864.56;5013948;28;20475;-67
2020/12/28 06:52:34;;;;;;;0.40;0.33;;;;;;;3.75;82.52;97861.41;4994739;28;20488;-67
2020/12/28 06:55:08;;;;;;;0.50;0.40;;;;;;;3.83;81.78;97854.44;5016921;28;20875;-68
2020/12/28 06:57:35;;;;;;;0.40;0.40;;;;;;;3.76;83.19;97836.25;4994519;28;20480;-69
2020/12/28 07:00:01;;;;;;;0.47;0.27;;;;;;;3.76;83.25;97841.59;5017167;28;20454;-68
2020/12/28 07:02:29;;;;;;;0.50;0.43;;;;;;;3.80;82.86;97841.72;5033880;28;20451;-68
2020/12/28 07:04:55;;;;;;;1.13;0.40;;;;;;;3.78;83.63;97828.66;5018149;28;21018;-68
2020/12/28 07:07:21;;;;;;;0.40;0.30;;;;;;;3.79;83.03;97829.44;5022605;28;20485;-68
2020/12/28 07:09:48;;;;;;;0.67;0.57;;;;;;;3.80;82.93;97828.31;5033069;28;20517;-67
2020/12/28 07:12:15;;;;;;;0.67;0.40;;;;;;;3.80;83.90;97818.41;5025942;28;20474;-68
2020/12/28 07:14:42;;;;;;;2.80;0.80;;;;;;;3.80;83.78;97828.31;5013943;28;20499;-68
2020/12/28 07:17:08;;;;;;;0.67;0.67;;;;;;;3.76;84.01;97830.88;5031183;28;20475;-68
2020/12/28 07:19:34;;;;;;;2.30;0.90;;;;;;;3.77;84.26;97831.66;5033329;28;20455;-67
2020/12/28 07:22:00;;;;;;;0.60;0.60;;;;;;;3.83;84.66;97837.59;5033234;28;20443;-67
2020/12/28 07:24:27;;;;;;;0.90;0.43;;;;;;;3.82;84.50;97823.44;5015918;28;20530;-68
2020/12/28 07:26:54;;;;;;;0.40;0.30;;;;;;;3.84;84.62;97823.09;5013698;28;20605;-67
2020/12/28 07:29:22;;;;;;;0.67;0.50;;;;;;;3.84;84.68;97825.78;5016039;28;20480;-68
2020/12/28 07:31:48;;;;;;;1.27;1.17;;;;;;;3.80;84.48;97821.06;5013195;28;20451;-66
2020/12/28 07:34:15;;;;;;;0.97;0.90;;;;;;;3.80;84.64;97815.72;5025372;28;20487;-67
2020/12/28 07:36:45;;;;;;;0.90;0.70;;;;;;;3.80;84.58;97820.28;5013361;28;20869;-66
2020/12/28 07:39:12;;;;;;;0.40;0.30;;;;;;;3.83;84.50;97826.91;5013657;28;20455;-67
2020/12/28 07:41:40;;;;;;;0.50;0.50;;;;;;;3.80;84.91;97828.31;5014057;28;20455;-66
2020/12/28 07:44:06;;;;;;;0.40;0.27;;;;;;;3.85;84.83;97835.38;5025918;28;20470;-67
2020/12/28 07:46:44;;;;;;;0.67;0.50;;;;;;;3.85;84.73;97838.06;5033207;28;20455;-66
2020/12/28 07:49:15;;;;;;;0.57;0.37;;;;;;;3.90;84.71;97841.34;5003107;28;20435;-67
2020/12/28 07:51:41;;;;;;;0.90;0.50;;;;;;;3.86;84.59;97834.28;5013502;28;20464;-68
2020/12/28 07:54:16;;;;;;;0.40;0.30;;;;;;;3.83;84.66;97837.59;5021590;28;20470;-67
2020/12/28 07:56:45;;;;;;;0.90;0.70;;;;;;;3.89;84.25;97847.78;5032909;28;20463;-67
2020/12/28 07:59:28;;;;;;;0.40;0.30;;;;;;;3.96;83.87;97849.97;5032091;28;20453;-66
2020/12/28 08:01:59;;;;;;;0.87;0.87;;;;;;;3.98;83.94;97866.47;5031189;28;20483;-68
2020/12/28 08:06:58;;;;;;;0.40;0.30;;;;;;;4.05;83.66;97858.72;5037489;22;20507;-65
2020/12/28 08:09:24;;;;;;;0.40;0.30;;;;;;;3.97;83.54;97867.59;5032538;28;20453;-68
2020/12/28 08:11:57;;;;;;;3.10;2.50;;;;;;;3.93;83.63;97872.81;5031540;28;20449;-69
2020/12/28 08:14:24;;;;;;;1.27;1.17;;;;;;;3.93;83.55;97872.81;5013286;28;20471;-69
2020/12/28 08:16:50;;;;;;;1.27;0.83;;;;;;;3.97;83.83;97883.66;5027928;28;20463;-69
2020/12/28 08:19:26;;;;;;;1.80;0.80;;;;;;;4.06;83.61;97881.72;5019909;28;20459;-69
2020/12/28 08:21:52;;;;;;;0.40;0.30;;;;;;;4.07;83.57;97877.94;5013278;28;20800;-66
2020/12/28 08:24:20;;;;;;;0.50;0.40;;;;;;;4.14;83.65;97880.88;5021935;28;20813;-68
2020/12/28 08:26:47;;;;;;;1.23;1.03;;;;;;;4.17;83.81;97890.97;5015576;28;20523;-69
2020/12/28 08:29:14;;;;;;;0.50;0.43;;;;;;;4.22;83.48;97890.75;5012725;28;20443;-68
2020/12/28 08:31:41;;;;;;;1.93;1.03;;;;;;;4.31;83.35;97888.03;5012826;28;20486;-66
2020/12/28 08:34:09;;;;;;;0.90;0.70;;;;;;;4.35;83.40;97882.81;5012683;28;20820;-66
2020/12/28 08:36:39;;;;;;;0.67;0.60;;;;;;;4.40;83.14;97880.72;5012567;28;20492;-66
2020/12/28 08:39:16;;;;;;;0.40;0.40;;;;;;;4.34;82.75;97879.34;5013225;28;20438;-67
2020/12/28 08:41:52;;;;;;;0.77;0.40;;;;;;;4.34;83.22;97878.53;5013427;28;20987;-66
2020/12/28 08:44:26;;;;;;;0.40;0.30;;;;;;;4.39;83.00;97868.44;5015796;28;20459;-67
2020/12/28 08:46:52;;;;;;;0.67;0.67;;;;;;;4.42;82.59;97869.66;5016484;28;20519;-66
2020/12/28 08:49:24;;;;;;;0.40;0.30;;;;;;;4.40;82.35;97864.63;5016212;28;20444;-67
2020/12/28 08:51:54;;;;;;;0.63;0.63;;;;;;;4.42;82.25;97853.56;5016423;28;20424;-67
2020/12/28 08:54:27;;;;;;;0.73;0.57;;;;;;;4.45;81.76;97856.38;5016332;28;20435;-67
2020/12/28 08:56:54;;;;;;;0.97;0.90;;;;;;;4.46;81.75;97855.28;5015964;28;21039;-66
2020/12/28 08:59:20;;;;;;;1.67;1.57;;;;;;;4.43;82.18;97855.16;5015934;28;20448;-64
2020/12/28 09:01:51;;;;;;;0.87;0.77;;;;;;;4.36;82.29;97863.72;5016003;28;20950;-66
2020/12/28 09:04:18;;;;;;;0.97;0.87;;;;;;;4.35;82.35;97861.38;5015922;28;20906;-66
2020/12/28 09:06:44;;;;;;;0.40;0.30;;;;;;;4.30;82.74;97852.41;5015711;28;20480;-66
2020/12/28 09:09:11;;;;;;;0.40;0.27;;;;;;;4.35;82.68;97843.41;5016464;28;20478;-67
2020/12/28 09:11:37;;;;;;;0.80;0.60;;;;;;;4.38;82.26;97849.97;5015861;28;20440;-66
2020/12/28 09:14:03;;;;;;;0.40;0.30;;;;;;;4.35;82.28;97851.44;5015998;28;20472;-67
2020/12/28 09:16:29;;;;;;;0.40;0.30;;;;;;;4.42;82.13;97853.56;5015937;28;20518;-66
2020/12/28 09:18:56;;;;;;;0.40;0.30;;;;;;;4.46;82.10;97849.91;5015962;28;20555;-66
2020/12/28 09:21:22;;;;;;;0.40;0.30;;;;;;;4.46;81.87;97852.59;5016067;28;20444;-66
2020/12/28 09:23:49;;;;;;;0.60;0.50;;;;;;;4.42;82.22;97849.00;5015964;28;20961;-66
2020/12/28 09:26:16;;;;;;;0.80;0.67;;;;;;;4.46;82.37;97860.63;5015708;28;20841;-66
2020/12/28 09:28:43;;;;;;;0.40;0.33;;;;;;;4.40;82.43;97847.78;5015728;28;20479;-66
2020/12/28 09:31:09;;;;;;;0.70;0.70;;;;;;;4.48;82.34;97852.28;5015343;28;20452;-67
2020/12/28 09:33:35;;;;;;;0.60;0.60;;;;;;;4.53;82.01;97854.75;5015558;28;20966;-67
2020/12/28 09:36:01;;;;;;;1.17;1.13;;;;;;;4.57;81.84;97861.03;5014759;28;20534;-67
2020/12/28 09:38:27;;;;;;;4.73;1.57;;;;;;;4.60;81.39;97867.63;5015190;28;20459;-67
2020/12/28 09:40:53;;;;;;;3.90;1.03;;;;;;;4.53;82.01;97860.91;5015509;28;20479;-66
2020/12/28 09:43:20;;;;;;;0.60;0.43;;;;;;;4.54;81.53;97865.13;5015497;28;20482;-67
2020/12/28 09:45:47;;;;;;;1.70;0.77;;;;;;;4.53;80.91;97849.41;5015386;28;20464;-67
2020/12/28 09:48:13;;;;;;;4.43;1.03;;;;;;;4.57;80.90;97854.88;5015277;28;20515;-66
2020/12/28 09:50:39;;;;;;;0.60;0.47;;;;;;;4.60;80.72;97849.63;5015353;28;20673;-66
2020/12/28 09:53:06;;;;;;;0.50;0.40;;;;;;;4.64;79.79;97863.16;5014974;28;20521;-67
2020/12/28 09:55:32;;;;;;;2.10;0.70;;;;;;;4.54;79.62;97869.72;5014816;28;20528;-68
2020/12/28 09:57:58;;;;;;;0.57;0.57;;;;;;;4.42;81.08;97870.44;5015244;28;20440;-68
2020/12/28 10:00:25;;;;;;;0.40;0.30;;;;;;;4.55;80.74;97876.66;5015164;28;20494;-68
2020/12/28 10:02:51;;;;;;;0.40;0.30;;;;;;;4.64;80.69;97866.63;5014905;28;20529;-68
2020/12/28 10:05:18;;;;;;;0.40;0.30;;;;;;;4.68;81.08;97875.59;5014831;28;20526;-68
2020/12/28 10:07:44;;;;;;;0.40;0.30;;;;;;;4.79;80.82;97871.41;5015229;28;20487;-69
2020/12/28 10:10:10;;;;;;;0.40;0.30;;;;;;;4.88;80.58;97862.50;5014996;28;20913;-66
2020/12/28 10:12:38;;;;;;;0.40;0.30;;;;;;;4.94;80.31;97856.56;5014662;28;20933;-67
2020/12/28 10:15:05;;;;;;;0.70;0.53;;;;;;;4.98;79.45;97857.47;5014694;28;20471;-68
2020/12/28 10:17:33;;;;;;;0.40;0.30;;;;;;;4.96;77.78;97851.69;5014876;28;20471;-67
2020/12/28 10:19:59;;;;;;;0.40;0.30;;;;;;;4.91;78.58;97856.44;5014708;28;20941;-67
2020/12/28 10:22:26;;;;;;;0.70;0.53;;;;;;;4.96;78.24;97848.22;5014766;28;20444;-67
2020/12/28 10:24:53;;;;;;;0.40;0.20;;;;;;;5.03;78.43;97840.41;5015015;28;20446;-66
2020/12/28 10:27:19;;;;;;;3.60;0.67;;;;;;;5.07;77.72;97835.94;5014657;28;20537;-66
2020/12/28 10:29:46;;;;;;;0.40;0.40;;;;;;;5.10;76.91;97840.66;5014345;28;20976;-65
2020/12/28 10:32:12;;;;;;;3.17;0.50;;;;;;;5.11;77.17;97836.84;5014677;28;20459;-67
2020/12/28 10:34:39;;;;;;;0.50;0.50;;;;;;;5.16;77.13;97836.63;5014050;28;20793;-67
2020/12/28 10:37:05;;;;;;;0.70;0.37;;;;;;;5.24;77.40;97830.38;5014453;28;20487;-68
2020/12/28 10:39:31;;;;;;;0.50;0.40;;;;;;;5.29;77.22;97827.47;5014132;28;20985;-67
2020/12/28 10:42:03;;;;;;;0.60;0.53;;;;;;;5.34;76.54;97833.75;5014434;28;20472;-67
2020/12/28 10:44:29;;;;;;;1.27;1.00;;;;;;;5.39;76.38;97823.56;5014516;28;20827;-68
2020/12/28 10:46:55;;;;;;;0.57;0.50;;;;;;;5.41;75.74;97828.63;5013950;28;20527;-66
2020/12/28 10:49:21;;;;;;;0.77;0.77;;;;;;;5.44;76.12;97819.88;5014338;28;20475;-66
2020/12/28 10:51:49;;;;;;;0.80;0.40;;;;;;;5.49;75.71;97825.81;5013987;28;21021;-67
2020/12/28 10:54:15;;;;;;;0.80;0.40;;;;;;;5.48;76.06;97832.28;5013896;28;20981;-67
2020/12/28 10:56:41;;;;;;;8.80;1.17;;;;;;;5.64;75.91;97816.31;5013847;28;20882;-67
2020/12/28 10:59:07;;;;;;;0.60;0.50;;;;;;;5.71;76.15;97816.53;5013809;28;20495;-66
2020/12/28 11:01:34;;;;;;;0.80;0.40;;;;;;;5.83;75.57;97826.47;5013750;28;20502;-68
2020/12/28 11:04:00;;;;;;;0.70;0.60;;;;;;;5.87;75.01;97826.56;5014072;28;20787;-68
2020/12/28 11:06:26;;;;;;;0.50;0.50;;;;;;;5.83;74.75;97835.31;5012743;28;20545;-68
2020/12/28 11:08:54;;;;;;;2.43;0.73;;;;;;;5.85;73.95;97836.88;5013564;28;20486;-67
2020/12/28 11:11:21;;;;;;;0.60;0.40;;;;;;;5.83;74.68;97829.94;5013913;28;20466;-68
2020/12/28 11:13:47;;;;;;;2.40;2.10;;;;;;;5.91;74.13;97822.09;5013617;28;20884;-67
2020/12/28 11:16:14;;;;;;;0.47;0.40;;;;;;;5.94;74.73;97819.56;5013435;28;20969;-67
2020/12/28 11:18:40;;;;;;;0.40;0.40;;;;;;;6.00;74.49;97812.03;5013924;28;20591;-67
2020/12/28 11:21:06;;;;;;;0.50;0.40;;;;;;;6.05;74.35;97817.16;5013870;28;20448;-67
2020/12/28 11:26:16;;;;;;;0.80;0.47;;;;;;;6.14;73.37;97831.25;5013159;28;20467;-67
2020/12/28 11:28:42;;;;;;;1.07;0.70;;;;;;;6.14;73.48;97825.09;5013677;28;20483;-67
2020/12/28 11:31:09;;;;;;;1.43;1.33;;;;;;;6.18;73.28;97829.47;5013307;28;20448;-68
2020/12/28 11:33:35;;;;;;;0.40;0.40;;;;;;;6.22;73.36;97837.63;5013632;28;20468;-67
2020/12/28 11:36:01;;;;;;;0.67;0.50;;;;;;;6.14;71.66;97833.94;5013544;28;20494;-68
2020/12/28 11:38:27;;;;;;;0.77;0.60;;;;;;;6.14;72.50;97838.53;5013508;28;20447;-66
2020/12/28 11:40:53;;;;;;;1.20;1.10;;;;;;;6.16;73.28;97833.63;5013568;28;20448;-65
2020/12/28 11:43:20;;;;;;;0.93;0.47;;;;;;;6.21;72.40;97836.84;5013166;28;20475;-67
2020/12/28 11:45:46;;;;;;;1.97;1.43;;;;;;;6.12;72.50;97833.50;5013139;28;20848;-66